METAR AND TAF INFORMATION
METAR FOR GMFO
ADDS - METARS form results

(0341 UTC 21 February 2020)
Data provider http://aviationweather.gov/metar/data/
 
METAR text: GMFO 210330Z VRB01KT 4000 BR BKN010 10/10 Q1025 NOSIG
Conditions at: GMFO (OUJDA/ANGADS , MA) observed 0330 UTC 21 February 2020
Temperature: 10.0°C (50°F)
Dewpoint: 10.0°C (50°F) [RH = 100%]
Pressure (altimeter): 30.27 inches Hg (1025.0 mb)
Winds: variable direction winds at 1 MPH (1 knots; 0.5 m/s)
Visibility: 2.49 miles (4.01 km)
Ceiling: 1000 feet AGL
Clouds: broken clouds at 1000 feet AGL
Weather: BR  (mist)

METAR text: GMFO 210300Z 24003KT 220V290 4000 BR BKN010 09/09 Q1025 NOSIG
Conditions at: GMFO (OUJDA/ANGADS , MA) observed 0300 UTC 21 February 2020
Temperature: 9.0°C (48°F)
Dewpoint: 9.0°C (48°F) [RH = 100%]
Pressure (altimeter): 30.27 inches Hg (1025.0 mb)
Winds: from the WSW (240 degrees) at 3 MPH (3 knots; 1.5 m/s)
Visibility: 2.49 miles (4.01 km)
Ceiling: 1000 feet AGL
Clouds: broken clouds at 1000 feet AGL
Weather: BR  (mist)

Forecast for: GMFO (OUJDA/ANGADS , MA)
Text: TAF GMFO 202300Z 2100/2206 33008KT 6000 BKN010
Forecast period: 0000 UTC 21 February 2020 to 0600 UTC 22 February 2020
Forecast type: FROM: standard forecast or significant change
Winds: from the NNW (330 degrees) at 9 MPH (8 knots; 4.1 m/s)
Visibility: 4 miles (6 km)
Ceiling: 1000 feet AGL
Clouds: broken clouds at 1000 feet AGL
Weather: no significant weather forecast for this period
Text: PROB30
Forecast period: 0200 to 0700 UTC 21 February 2020
Forecast type: TEMPORARY: The following changes expected for less than half the time period
Winds: from the SSW (200 degrees) at 5 MPH (4 knots; 2.1 m/s)
Visibility: 1.24 miles (2.00 km)
Ceiling: 500 feet AGL
Clouds: broken clouds at 500 feet AGL
Weather: BR  (mist)

 AIRPORT MAP

 RUNWAY INFORMATION
Runway 06 Runway length 9843 ft Runway width 148 ft
Runway elevation 1535 ft Runway displaced threshold 0 ft Runway heading 58
Runway 24 Runway length 9843 ft Runway width 148 ft
Runway elevation 1493 ft Runway displaced threshold 0 ft Runway heading 238

 AIRPORT FREQUENCIES
Type APP Name OUJDA APP Frequency 136.6 MHZ
Type ATIS Name ATIS Frequency 121.6 MHZ
Type TWR Name OUJDA TWR Frequency 118.2 MHZ

 AIRPORT NEAR NAVIGATION AIDS
Type NDB Name Oujda Frequency 371 KHZ
Type VOR-DME Name Oujda Frequency 117500 KHZ



Powered by Virtual Airlines Manager [v2.6.2]